Aérodrome :
LOGIN :

S'inscrire | Disclaimer

   EN    FR    IT 

 










Légende :    VFR   VFR Marginal   IFR   IFR Intensif   IFR Très Intensif
Visi : 
Plafond : 
>= 8 km
>= 3000ft
5 à 8 km
1000 à 3000 ft
1500m à 5 km
500 à 1000 ft
800 à 1500m
200 à 500 ft
< 800m
< 200 ft
Symboles :   Orages  Brouillard  Fortes neiges  Fortes précipitations  Vent > 20 kt
SIGMETs :   Divers  Orages  Givrage  Turbulence  Onde Orograph.  Cendres Volcan.







- Altitude de l'aérodrome : 788 ft
- Code IATA : DCM
- Voir les cartes d'approche


LFCK - Castres-Mazamet

DERNIER METAR :
  • 210030Z AUTO 04003KT CAVOK 13/09 Q1024

METARs EXPIRÉS :
  • 210000Z AUTO VRB02KT CAVOK 14/08 Q1024
  • 202330Z AUTO 00000KT CAVOK 14/08 Q1025
  • 202300Z AUTO 00000KT CAVOK 14/07 Q1025
  • 202230Z AUTO 00000KT CAVOK 14/07 Q1025
  • 202200Z AUTO 00000KT CAVOK 15/07 Q1025

TAF TAF LFCK
Valide du 20 à 18h jusqu'au 21 à 03h UTC


201700Z 2018/2103 31010KT CAVOK
FM202200 VRB02KT CAVOK
Pas de NOTAMs connus pour ce terrain.



MET'MAP, la Météo Aéronautique d'un coup d'oeil ! - Copyright ORBIFLY Décembre 2007 - Disclaimer

ORBIFLY MET'MAP TEAM :

Programmation & Développement : Alexandra Zaïnal
Conception & Développement : Baudouin d'Aumeries
Co-Programmation & Développement : Marc-Olivier Méhu
Soutien technique & logistique : Manuel Goepfert

Contact : metmap@orbifly.com




SOURCES & CREDITS :

   NOAA